createdAt,value
2022-10-22T00:02:59.330Z,16.05
2022-10-22T00:06:08.111Z,12.65
2022-10-22T00:09:16.346Z,9.50
2022-10-22T00:12:31.842Z,9.67
2022-10-22T00:15:40.303Z,10.33
2022-10-22T00:18:48.969Z,12.23
2022-10-22T00:21:57.262Z,13.82
2022-10-22T00:25:12.273Z,13.10
2022-10-22T00:28:20.313Z,11.67
2022-10-22T00:31:35.315Z,10.77
2022-10-22T00:34:50.323Z,13.45
2022-10-22T00:37:58.354Z,9.98
2022-10-22T00:41:14.314Z,11.35
2022-10-22T00:44:36.084Z,10.87
2022-10-22T00:48:15.291Z,15.47
2022-10-22T00:51:17.388Z,15.88
2022-10-22T00:54:32.315Z,11.10
2022-10-22T00:57:48.311Z,10.77
2022-10-22T01:00:56.408Z,9.00
2022-10-22T01:04:05.071Z,10.47
2022-10-22T01:07:13.305Z,12.25
2022-10-22T01:10:51.303Z,15.77
2022-10-22T01:14:08.595Z,11.32
2022-10-22T01:17:41.810Z,13.47
2022-10-22T01:21:08.114Z,10.57
2022-10-22T01:24:30.331Z,9.05
2022-10-22T01:28:01.314Z,10.15
2022-10-22T01:31:20.393Z,12.57
2022-10-22T01:34:23.738Z,11.57
2022-10-22T01:37:43.593Z,12.83
2022-10-22T01:40:47.440Z,11.65
2022-10-22T01:44:02.324Z,15.27
2022-10-22T01:47:16.241Z,16.80
2022-10-22T01:50:53.347Z,12.67
2022-10-22T01:54:25.371Z,10.57
2022-10-22T01:57:43.409Z,10.18
2022-10-22T02:01:10.367Z,10.02
2022-10-22T02:04:32.227Z,11.25
2022-10-22T02:07:46.344Z,9.93
2022-10-22T02:11:09.330Z,12.13
2022-10-22T02:14:19.851Z,12.80
2022-10-22T02:17:29.332Z,12.00
2022-10-22T02:20:48.390Z,10.15
2022-10-22T02:23:57.271Z,10.00
2022-10-22T02:27:16.343Z,10.97
2022-10-22T02:30:25.833Z,9.95
2022-10-22T02:33:38.368Z,12.90
2022-10-22T02:36:50.357Z,11.75
2022-10-22T02:40:00.318Z,9.67
2022-10-22T02:43:08.967Z,9.77
2022-10-22T02:46:18.383Z,12.05
2022-10-22T02:49:33.352Z,10.40
2022-10-22T02:52:41.746Z,12.63
2022-10-22T02:55:50.011Z,13.97
2022-10-22T02:58:58.364Z,13.23
2022-10-22T03:02:14.369Z,11.57
2022-10-22T03:05:16.139Z,13.30
2022-10-22T03:08:30.393Z,14.30
2022-10-22T03:11:38.644Z,16.53
2022-10-22T03:14:53.387Z,18.90
2022-10-22T03:17:55.235Z,16.83
2022-10-22T03:21:28.382Z,14.15
2022-10-22T03:24:42.386Z,12.13
2022-10-22T03:28:00.388Z,11.77
2022-10-22T03:31:02.202Z,13.70
2022-10-22T03:34:17.383Z,14.15
2022-10-22T03:37:19.740Z,15.38
2022-10-22T03:40:34.412Z,13.27
2022-10-22T03:43:37.819Z,13.00
2022-10-22T03:46:52.422Z,13.70
2022-10-22T03:49:54.220Z,12.57
2022-10-22T03:53:10.399Z,14.07
2022-10-22T03:56:12.801Z,11.85
2022-10-22T03:59:27.411Z,14.17
2022-10-22T04:02:35.379Z,14.60
2022-10-22T04:05:43.991Z,12.52
2022-10-22T04:08:52.522Z,15.38
2022-10-22T04:12:08.044Z,13.45
2022-10-22T04:15:23.381Z,13.17
2022-10-22T04:18:31.978Z,13.00
2022-10-22T04:21:41.423Z,14.73
2022-10-22T04:24:56.412Z,16.75
2022-10-22T04:27:58.168Z,12.70
2022-10-22T04:31:29.478Z,14.80
2022-10-22T04:34:31.211Z,14.27
2022-10-22T04:37:46.416Z,14.20
2022-10-22T04:40:55.066Z,18.08
2022-10-22T04:44:04.385Z,12.23
2022-10-22T04:47:12.937Z,11.87
2022-10-22T04:50:21.433Z,13.17
2022-10-22T04:53:30.115Z,13.32
2022-10-22T04:56:39.398Z,14.90
2022-10-22T04:59:54.474Z,13.27
2022-10-22T05:02:56.235Z,11.80
2022-10-22T05:09:24.941Z,17.67
2022-10-22T05:12:46.453Z,12.43
2022-10-22T05:15:48.227Z,14.43
2022-10-22T05:19:06.435Z,12.77
2022-10-22T05:22:14.460Z,13.33
2022-10-22T05:25:23.085Z,11.07
2022-10-22T05:28:38.429Z,12.70
2022-10-22T05:31:53.434Z,13.82
2022-10-22T05:35:01.447Z,14.97
2022-10-22T05:38:13.035Z,14.57
2022-10-22T05:41:25.457Z,12.43
2022-10-22T05:44:40.436Z,18.67
2022-10-22T05:47:48.995Z,11.98
2022-10-22T05:51:03.668Z,11.40
2022-10-22T05:54:18.581Z,15.33
2022-10-22T05:57:27.492Z,11.63
2022-10-22T06:00:42.468Z,17.27
2022-10-22T06:03:54.155Z,15.57
2022-10-22T06:07:02.484Z,18.90
2022-10-22T06:10:27.533Z,13.87
2022-10-22T06:13:42.500Z,12.60
2022-10-22T06:16:58.453Z,13.27
2022-10-22T06:20:00.346Z,16.12
2022-10-22T06:23:15.530Z,15.90
2022-10-22T06:26:23.483Z,11.43
2022-10-22T06:29:31.991Z,19.08
2022-10-22T06:32:46.454Z,13.55
2022-10-22T06:36:05.296Z,15.45
2022-10-22T06:39:17.624Z,15.53
2022-10-22T06:42:25.494Z,22.10
2022-10-22T06:45:40.560Z,15.77
2022-10-22T06:48:58.499Z,13.57
2022-10-22T06:52:00.388Z,13.65
2022-10-22T06:55:16.490Z,12.07
2022-10-22T06:58:18.309Z,17.03
2022-10-22T07:01:39.560Z,17.98
2022-10-22T07:04:47.492Z,14.73
2022-10-22T07:07:56.090Z,15.27
2022-10-22T07:11:12.459Z,18.50
2022-10-22T07:14:22.171Z,13.67
2022-10-22T07:17:30.607Z,16.60
2022-10-22T07:20:39.071Z,14.27
2022-10-22T07:23:53.526Z,15.93
2022-10-22T07:26:55.375Z,13.13
2022-10-22T07:30:11.514Z,14.00
2022-10-22T07:33:20.448Z,14.60
2022-10-22T07:36:29.158Z,13.55
2022-10-22T07:39:37.520Z,17.60
2022-10-22T07:42:52.493Z,16.97
2022-10-22T07:46:01.180Z,13.93
2022-10-22T07:49:15.508Z,25.40
2022-10-22T07:52:23.488Z,16.58
2022-10-22T07:55:32.867Z,19.62
2022-10-22T07:58:41.494Z,20.53
2022-10-22T08:02:03.587Z,18.83
2022-10-22T08:05:18.487Z,15.07
2022-10-22T08:08:30.455Z,17.37
2022-10-22T08:11:39.504Z,17.15
2022-10-22T08:14:54.574Z,14.95
2022-10-22T08:18:03.095Z,18.23
2022-10-22T08:21:11.578Z,16.17
2022-10-22T08:24:20.244Z,18.98
2022-10-22T08:27:28.570Z,15.82
2022-10-22T08:30:37.647Z,22.98
2022-10-22T08:33:46.530Z,18.40
2022-10-22T08:36:55.605Z,15.77
2022-10-22T08:40:04.536Z,22.13
2022-10-22T08:43:47.494Z,22.83
2022-10-22T08:47:22.763Z,19.75
2022-10-22T08:50:50.583Z,20.47
2022-10-22T08:54:20.533Z,16.98
2022-10-22T08:57:55.521Z,21.42
2022-10-22T09:01:11.691Z,19.77
2022-10-22T09:04:33.598Z,15.90
2022-10-22T09:07:50.526Z,15.87
2022-10-22T09:11:26.609Z,19.23
2022-10-22T09:14:35.111Z,17.25
2022-10-22T09:18:12.576Z,23.17
2022-10-22T09:21:45.547Z,19.87
2022-10-22T09:24:59.552Z,20.47
2022-10-22T09:28:09.899Z,18.20
2022-10-22T09:31:20.570Z,22.45
2022-10-22T09:34:29.820Z,22.37
2022-10-22T09:37:55.599Z,18.83
2022-10-22T09:40:59.934Z,17.67
2022-10-22T09:44:14.579Z,18.23
2022-10-22T09:48:02.470Z,24.37
2022-10-22T09:51:26.616Z,18.02
2022-10-22T09:54:40.134Z,18.33
2022-10-22T09:58:04.584Z,22.03
2022-10-22T10:01:06.324Z,24.45
2022-10-22T10:04:22.626Z,24.60
2022-10-22T10:07:26.923Z,19.30
2022-10-22T10:11:00.611Z,20.20
2022-10-22T10:14:24.600Z,24.10
2022-10-22T10:18:07.620Z,20.75
2022-10-22T10:21:30.760Z,25.85
2022-10-22T10:25:05.621Z,23.27
2022-10-22T10:28:31.141Z,19.92
2022-10-22T10:31:53.601Z,25.13
2022-10-22T10:35:17.197Z,17.55
2022-10-22T10:38:48.621Z,18.77
2022-10-22T10:42:22.575Z,27.98
2022-10-22T10:45:55.590Z,23.80
2022-10-22T10:49:16.607Z,22.07
2022-10-22T10:52:42.640Z,21.85
2022-10-22T10:56:01.290Z,22.62
2022-10-22T10:59:29.663Z,24.30
2022-10-22T11:06:09.659Z,20.03
2022-10-22T11:09:37.664Z,29.60
2022-10-22T11:12:50.659Z,22.92
2022-10-22T11:16:25.720Z,22.73
2022-10-22T11:19:53.003Z,21.20
2022-10-22T11:23:18.738Z,26.67
2022-10-22T11:26:45.656Z,25.10
2022-10-22T11:29:56.065Z,21.33
2022-10-22T11:33:16.606Z,27.50
2022-10-22T11:36:22.477Z,25.88
2022-10-22T11:39:51.607Z,21.73
2022-10-22T11:43:05.685Z,23.45
2022-10-22T11:46:44.631Z,26.67
2022-10-22T11:49:58.936Z,24.20
2022-10-22T11:53:32.641Z,27.85
2022-10-22T11:56:47.695Z,22.17
2022-10-22T11:59:54.275Z,26.35
2022-10-22T12:03:21.635Z,20.65
2022-10-22T12:06:25.506Z,24.70
2022-10-22T12:09:46.666Z,24.58
2022-10-22T12:13:12.597Z,26.77
2022-10-22T12:16:32.091Z,24.63
2022-10-22T12:20:05.672Z,20.92
2022-10-22T12:23:20.619Z,22.42
2022-10-22T12:26:26.145Z,22.17
2022-10-22T12:29:40.760Z,21.10
2022-10-22T12:32:59.623Z,29.20
2022-10-22T12:36:01.432Z,20.25
2022-10-22T12:39:23.651Z,26.37
2022-10-22T12:42:25.492Z,20.70
2022-10-22T12:45:41.715Z,23.70
2022-10-22T12:48:56.688Z,24.58
2022-10-22T12:52:02.863Z,20.45
2022-10-22T12:55:23.680Z,20.08
2022-10-22T12:58:41.197Z,31.27
2022-10-22T13:01:50.663Z,22.37
2022-10-22T13:05:16.351Z,21.70
2022-10-22T13:08:29.725Z,23.25
2022-10-22T13:11:42.667Z,23.65
2022-10-22T13:15:26.664Z,23.58
2022-10-22T13:18:41.702Z,27.33
2022-10-22T13:21:48.766Z,25.62
2022-10-22T13:25:24.679Z,22.35
2022-10-22T13:28:27.347Z,24.23
2022-10-22T13:31:41.860Z,26.73
2022-10-22T13:34:56.723Z,25.70
2022-10-22T13:37:59.655Z,33.70
2022-10-22T13:41:29.691Z,37.17
2022-10-22T13:44:31.441Z,30.10
2022-10-22T13:47:46.680Z,23.40
2022-10-22T13:50:50.056Z,30.00
2022-10-22T13:54:04.699Z,32.00
2022-10-22T13:57:13.292Z,35.03
2022-10-22T14:00:24.749Z,30.00
2022-10-22T14:03:35.607Z,29.67
2022-10-22T14:06:43.704Z,25.80
2022-10-22T14:09:58.693Z,27.13
2022-10-22T14:13:14.687Z,27.15
2022-10-22T14:16:32.719Z,25.60
2022-10-22T14:19:40.729Z,26.42
2022-10-22T14:22:51.236Z,25.03
2022-10-22T14:26:00.784Z,26.08
2022-10-22T14:29:10.570Z,24.70
2022-10-22T14:32:21.767Z,23.33
2022-10-22T14:35:36.736Z,21.08
2022-10-22T14:38:38.542Z,19.53
2022-10-22T14:41:53.731Z,20.37
2022-10-22T14:45:02.756Z,27.27
2022-10-22T14:51:24.458Z,23.38
2022-10-22T14:54:38.743Z,19.23
2022-10-22T14:57:47.732Z,21.42
2022-10-22T15:00:58.492Z,27.80
2022-10-22T15:04:06.802Z,23.35
2022-10-22T15:07:18.291Z,19.77
2022-10-22T15:10:27.745Z,36.33
2022-10-22T15:13:43.021Z,25.52
2022-10-22T15:16:51.788Z,18.62
2022-10-22T15:20:00.676Z,22.73
2022-10-22T15:23:15.763Z,22.48
2022-10-22T15:26:17.901Z,24.73
2022-10-22T15:29:32.761Z,18.67
2022-10-22T15:32:35.583Z,22.17
2022-10-22T15:35:50.841Z,25.23
2022-10-22T15:38:52.938Z,20.20
2022-10-22T15:42:08.767Z,24.13
2022-10-22T15:45:17.759Z,24.77
2022-10-22T15:48:32.810Z,20.48
2022-10-22T15:51:34.795Z,20.70
2022-10-22T15:54:50.754Z,20.17
2022-10-22T15:58:03.366Z,21.63
2022-10-22T16:01:14.299Z,21.10
2022-10-22T16:04:28.809Z,18.70
2022-10-22T16:07:37.902Z,23.75
2022-10-22T16:10:47.044Z,26.27
2022-10-22T16:14:02.798Z,24.70
2022-10-22T16:17:11.378Z,21.90
2022-10-22T16:20:25.759Z,24.77
2022-10-22T16:23:27.779Z,20.92
2022-10-22T16:26:42.807Z,22.42
2022-10-22T16:29:58.816Z,20.73
2022-10-22T16:33:03.420Z,22.80
2022-10-22T16:36:21.812Z,24.33
2022-10-22T16:39:24.287Z,24.70
2022-10-22T16:42:38.793Z,29.05
2022-10-22T16:45:50.079Z,23.47
2022-10-22T16:49:04.791Z,26.33
2022-10-22T16:52:19.751Z,27.62
2022-10-22T16:55:35.812Z,27.85
2022-10-22T16:58:55.793Z,30.70
2022-10-22T17:05:18.685Z,24.73
2022-10-22T17:08:27.884Z,23.73
2022-10-22T17:11:44.935Z,27.13
2022-10-22T17:14:54.084Z,30.92
2022-10-22T17:18:08.783Z,27.10
2022-10-22T17:21:14.067Z,31.62
2022-10-22T17:24:28.822Z,26.90
2022-10-22T17:27:38.968Z,28.87
2022-10-22T17:30:48.061Z,30.40
2022-10-22T17:34:03.844Z,26.93
2022-10-22T17:37:12.595Z,27.00
2022-10-22T17:40:21.899Z,29.80
2022-10-22T17:43:33.161Z,27.60
2022-10-22T17:46:48.849Z,26.02
2022-10-22T17:49:57.651Z,26.57
2022-10-22T17:53:06.852Z,23.90
2022-10-22T17:56:20.355Z,28.12
2022-10-22T17:59:28.840Z,24.65
2022-10-22T18:02:45.013Z,26.70
2022-10-22T18:05:47.209Z,23.13
2022-10-22T18:09:05.858Z,28.30
2022-10-22T18:12:08.207Z,26.45
2022-10-22T18:15:29.858Z,27.73
2022-10-22T18:18:32.239Z,25.02
2022-10-22T18:21:47.866Z,27.23
2022-10-22T18:24:56.931Z,23.50
2022-10-22T18:28:08.855Z,27.77
2022-10-22T18:31:27.876Z,27.98
2022-10-22T18:34:34.042Z,22.75
2022-10-22T18:37:48.943Z,26.13
2022-10-22T18:40:58.594Z,25.48
2022-10-22T18:44:10.859Z,23.77
2022-10-22T18:47:26.926Z,24.55
2022-10-22T18:50:29.111Z,25.48
2022-10-22T18:53:58.899Z,25.17
2022-10-22T18:57:06.609Z,29.58
2022-10-22T19:00:21.876Z,29.73
2022-10-22T19:03:30.842Z,24.85
2022-10-22T19:06:43.115Z,32.60
2022-10-22T19:09:53.868Z,28.37
2022-10-22T19:13:15.903Z,26.40
2022-10-22T19:16:21.004Z,28.90
2022-10-22T19:19:37.884Z,23.73
2022-10-22T19:22:46.856Z,26.27
2022-10-22T19:26:07.022Z,25.03
2022-10-22T19:29:15.849Z,24.63
2022-10-22T19:32:27.520Z,29.25
2022-10-22T19:35:38.892Z,25.67
2022-10-22T19:38:48.891Z,27.80
2022-10-22T19:41:57.879Z,29.53
2022-10-22T19:45:08.515Z,27.92
2022-10-22T19:48:16.989Z,25.90
2022-10-22T19:51:28.567Z,30.25
2022-10-22T19:54:36.919Z,32.00
2022-10-22T19:57:51.920Z,26.20
2022-10-22T20:01:11.910Z,26.10
2022-10-22T20:04:16.428Z,25.17
2022-10-22T20:07:30.992Z,27.83
2022-10-22T20:10:39.919Z,29.20
2022-10-22T20:13:55.704Z,27.67
2022-10-22T20:17:03.914Z,27.00
2022-10-22T20:20:12.898Z,26.12
2022-10-22T20:23:21.899Z,24.87
2022-10-22T20:26:36.926Z,24.65
2022-10-22T20:29:39.423Z,28.57
2022-10-22T20:32:53.947Z,24.75
2022-10-22T20:36:06.946Z,26.92
2022-10-22T20:39:16.308Z,25.50
2022-10-22T20:42:24.906Z,27.05
2022-10-22T20:45:35.815Z,28.17
2022-10-22T20:48:44.928Z,27.73
2022-10-22T20:51:59.993Z,26.08
2022-10-22T20:55:02.019Z,25.50
2022-10-22T20:58:17.012Z,24.75
2022-10-22T21:01:25.998Z,24.30
2022-10-22T21:04:44.034Z,24.65
2022-10-22T21:07:53.955Z,31.27
2022-10-22T21:11:02.597Z,26.70
2022-10-22T21:14:13.061Z,24.83
2022-10-22T21:17:21.456Z,27.00
2022-10-22T21:20:29.973Z,25.50
2022-10-22T21:23:38.900Z,27.85
2022-10-22T21:26:48.951Z,27.85
2022-10-22T21:30:03.933Z,26.92
2022-10-22T21:33:05.933Z,25.57
2022-10-22T21:36:22.957Z,29.55
2022-10-22T21:39:25.075Z,23.77
2022-10-22T21:42:40.984Z,29.37
2022-10-22T21:45:43.534Z,27.52
2022-10-22T21:49:02.027Z,27.00
2022-10-22T21:52:10.963Z,26.80
2022-10-22T21:55:19.431Z,24.63
2022-10-22T21:58:27.968Z,22.48
2022-10-22T22:01:43.024Z,24.98
2022-10-22T22:04:50.959Z,29.27
2022-10-22T22:08:05.946Z,26.42
2022-10-22T22:11:16.774Z,22.13
2022-10-22T22:14:39.016Z,23.50
2022-10-22T22:17:47.739Z,24.10
2022-10-22T22:20:55.975Z,23.97
2022-10-22T22:24:05.462Z,31.02
2022-10-22T22:30:34.931Z,28.02
2022-10-22T22:33:50.955Z,26.92
2022-10-22T22:37:06.960Z,28.00
2022-10-22T22:40:09.208Z,25.15
2022-10-22T22:43:23.979Z,31.05
2022-10-22T22:46:32.000Z,28.52
2022-10-22T22:49:46.966Z,27.42
2022-10-22T22:52:48.731Z,30.30
2022-10-22T22:56:14.955Z,26.65
2022-10-22T22:59:17.128Z,23.62
2022-10-22T23:02:31.989Z,24.52
2022-10-22T23:05:36.965Z,25.02
2022-10-22T23:08:58.277Z,25.87
2022-10-22T23:12:07.023Z,25.55
2022-10-22T23:15:22.277Z,26.87
2022-10-22T23:18:31.032Z,26.30
2022-10-22T23:21:47.959Z,24.55
2022-10-22T23:24:55.995Z,24.40
2022-10-22T23:28:04.765Z,25.92
2022-10-22T23:31:13.031Z,26.25
2022-10-22T23:34:31.038Z,26.10
2022-10-22T23:37:39.199Z,24.50
2022-10-22T23:40:54.313Z,27.00
2022-10-22T23:44:10.033Z,25.35
2022-10-22T23:47:12.847Z,22.58
2022-10-22T23:50:28.059Z,25.65
2022-10-22T23:53:30.078Z,25.30
2022-10-22T23:56:45.035Z,24.87
2022-10-22T23:59:46.878Z,25.23
